sensor_id;sensor_type;location;lat;lon;timestamp;P1;durP1;ratioP1;P2;durP2;ratioP2
21591;SDS011;10958;50.892;3.992;2023-06-26T00:01:29;5.45;;;3.00;;
21591;SDS011;10958;50.892;3.992;2023-06-26T00:08:53;4.80;;;2.80;;
21591;SDS011;10958;50.892;3.992;2023-06-26T00:11:20;7.03;;;2.63;;
21591;SDS011;10958;50.892;3.992;2023-06-26T00:13:47;4.82;;;2.75;;
21591;SDS011;10958;50.892;3.992;2023-06-26T00:16:13;5.82;;;3.20;;
21591;SDS011;10958;50.892;3.992;2023-06-26T00:18:39;4.38;;;2.80;;
21591;SDS011;10958;50.892;3.992;2023-06-26T00:21:04;6.07;;;2.95;;
21591;SDS011;10958;50.892;3.992;2023-06-26T00:23:30;4.25;;;2.92;;
21591;SDS011;10958;50.892;3.992;2023-06-26T00:26:02;5.00;;;3.30;;
21591;SDS011;10958;50.892;3.992;2023-06-26T00:28:33;7.97;;;3.53;;
21591;SDS011;10958;50.892;3.992;2023-06-26T00:30:58;7.60;;;3.30;;
21591;SDS011;10958;50.892;3.992;2023-06-26T00:33:25;6.28;;;3.60;;
21591;SDS011;10958;50.892;3.992;2023-06-26T00:35:51;7.45;;;2.85;;
21591;SDS011;10958;50.892;3.992;2023-06-26T00:38:17;5.68;;;2.70;;
21591;SDS011;10958;50.892;3.992;2023-06-26T00:40:44;5.22;;;2.65;;
21591;SDS011;10958;50.892;3.992;2023-06-26T00:43:09;6.50;;;3.13;;
21591;SDS011;10958;50.892;3.992;2023-06-26T00:45:35;4.25;;;2.40;;
21591;SDS011;10958;50.892;3.992;2023-06-26T00:48:01;4.75;;;2.85;;
21591;SDS011;10958;50.892;3.992;2023-06-26T00:50:27;5.57;;;3.17;;
21591;SDS011;10958;50.892;3.992;2023-06-26T00:52:58;6.72;;;2.80;;
21591;SDS011;10958;50.892;3.992;2023-06-26T00:55:27;6.10;;;3.08;;
21591;SDS011;10958;50.892;3.992;2023-06-26T00:57:54;4.80;;;2.63;;
21591;SDS011;10958;50.892;3.992;2023-06-26T01:00:23;5.40;;;3.05;;
21591;SDS011;10958;50.892;3.992;2023-06-26T01:02:49;5.40;;;2.63;;
21591;SDS011;10958;50.892;3.992;2023-06-26T01:05:18;3.90;;;2.50;;
21591;SDS011;10958;50.892;3.992;2023-06-26T01:07:46;6.95;;;2.67;;
21591;SDS011;10958;50.892;3.992;2023-06-26T01:10:16;4.00;;;2.83;;
21591;SDS011;10958;50.892;3.992;2023-06-26T01:14:08;5.65;;;2.88;;
21591;SDS011;10958;50.892;3.992;2023-06-26T01:16:34;4.63;;;2.53;;
21591;SDS011;10958;50.892;3.992;2023-06-26T01:19:00;6.40;;;2.90;;
21591;SDS011;10958;50.892;3.992;2023-06-26T01:21:26;6.45;;;3.00;;
21591;SDS011;10958;50.892;3.992;2023-06-26T01:26:30;5.43;;;2.60;;
21591;SDS011;10958;50.892;3.992;2023-06-26T01:29:00;5.88;;;2.30;;
21591;SDS011;10958;50.892;3.992;2023-06-26T01:31:30;5.97;;;3.10;;
21591;SDS011;10958;50.892;3.992;2023-06-26T01:33:57;4.78;;;2.65;;
21591;SDS011;10958;50.892;3.992;2023-06-26T01:36:25;7.63;;;3.20;;
21591;SDS011;10958;50.892;3.992;2023-06-26T01:38:50;4.38;;;2.80;;
21591;SDS011;10958;50.892;3.992;2023-06-26T01:41:17;7.13;;;3.10;;
21591;SDS011;10958;50.892;3.992;2023-06-26T01:54:49;9.57;;;3.35;;
21591;SDS011;10958;50.892;3.992;2023-06-26T01:57:35;8.25;;;3.47;;
21591;SDS011;10958;50.892;3.992;2023-06-26T02:00:05;7.97;;;3.25;;
21591;SDS011;10958;50.892;3.992;2023-06-26T02:02:35;8.02;;;3.72;;
21591;SDS011;10958;50.892;3.992;2023-06-26T02:05:02;10.65;;;3.05;;
21591;SDS011;10958;50.892;3.992;2023-06-26T02:07:28;7.70;;;3.40;;
21591;SDS011;10958;50.892;3.992;2023-06-26T02:09:54;8.57;;;3.60;;
21591;SDS011;10958;50.892;3.992;2023-06-26T02:12:20;7.07;;;3.72;;
21591;SDS011;10958;50.892;3.992;2023-06-26T02:14:46;8.43;;;3.38;;
21591;SDS011;10958;50.892;3.992;2023-06-26T02:17:12;9.13;;;3.70;;
21591;SDS011;10958;50.892;3.992;2023-06-26T02:19:37;10.70;;;3.95;;
21591;SDS011;10958;50.892;3.992;2023-06-26T02:22:12;11.55;;;3.90;;
21591;SDS011;10958;50.892;3.992;2023-06-26T02:24:42;9.77;;;3.85;;
21591;SDS011;10958;50.892;3.992;2023-06-26T02:27:09;10.48;;;4.30;;
21591;SDS011;10958;50.892;3.992;2023-06-26T02:29:35;10.48;;;4.03;;
21591;SDS011;10958;50.892;3.992;2023-06-26T02:32:01;10.43;;;3.42;;
21591;SDS011;10958;50.892;3.992;2023-06-26T02:34:28;11.07;;;3.80;;
21591;SDS011;10958;50.892;3.992;2023-06-26T02:36:56;9.68;;;3.75;;
21591;SDS011;10958;50.892;3.992;2023-06-26T02:39:27;13.77;;;4.10;;
21591;SDS011;10958;50.892;3.992;2023-06-26T02:41:56;10.38;;;3.95;;
21591;SDS011;10958;50.892;3.992;2023-06-26T02:44:21;11.13;;;3.60;;
21591;SDS011;10958;50.892;3.992;2023-06-26T02:46:47;10.70;;;4.22;;
21591;SDS011;10958;50.892;3.992;2023-06-26T02:49:13;16.98;;;4.70;;
21591;SDS011;10958;50.892;3.992;2023-06-26T02:51:39;13.23;;;4.38;;
21591;SDS011;10958;50.892;3.992;2023-06-26T02:54:05;13.48;;;4.45;;
21591;SDS011;10958;50.892;3.992;2023-06-26T02:56:31;12.07;;;3.92;;
21591;SDS011;10958;50.892;3.992;2023-06-26T02:58:57;11.50;;;4.13;;
21591;SDS011;10958;50.892;3.992;2023-06-26T03:01:25;12.43;;;4.47;;
21591;SDS011;10958;50.892;3.992;2023-06-26T03:03:51;12.57;;;4.57;;
21591;SDS011;10958;50.892;3.992;2023-06-26T03:06:17;13.07;;;4.47;;
21591;SDS011;10958;50.892;3.992;2023-06-26T03:08:46;8.88;;;4.15;;
21591;SDS011;10958;50.892;3.992;2023-06-26T03:11:12;12.38;;;4.05;;
21591;SDS011;10958;50.892;3.992;2023-06-26T03:13:37;11.65;;;4.45;;
21591;SDS011;10958;50.892;3.992;2023-06-26T03:16:03;17.05;;;4.47;;
21591;SDS011;10958;50.892;3.992;2023-06-26T03:18:30;13.18;;;4.28;;
21591;SDS011;10958;50.892;3.992;2023-06-26T03:20:58;17.75;;;4.78;;
21591;SDS011;10958;50.892;3.992;2023-06-26T03:23:24;14.45;;;4.38;;
21591;SDS011;10958;50.892;3.992;2023-06-26T03:25:50;9.85;;;4.00;;
21591;SDS011;10958;50.892;3.992;2023-06-26T03:28:16;11.07;;;4.00;;
21591;SDS011;10958;50.892;3.992;2023-06-26T03:30:42;11.02;;;4.47;;
21591;SDS011;10958;50.892;3.992;2023-06-26T03:33:08;13.98;;;4.20;;
21591;SDS011;10958;50.892;3.992;2023-06-26T03:35:34;13.73;;;4.15;;
21591;SDS011;10958;50.892;3.992;2023-06-26T03:38:00;13.70;;;4.40;;
21591;SDS011;10958;50.892;3.992;2023-06-26T03:40:26;14.93;;;4.32;;
21591;SDS011;10958;50.892;3.992;2023-06-26T03:42:52;14.32;;;4.32;;
21591;SDS011;10958;50.892;3.992;2023-06-26T03:45:18;18.63;;;4.95;;
21591;SDS011;10958;50.892;3.992;2023-06-26T03:47:44;12.48;;;3.90;;
21591;SDS011;10958;50.892;3.992;2023-06-26T03:50:13;15.73;;;4.38;;
21591;SDS011;10958;50.892;3.992;2023-06-26T03:52:40;13.27;;;4.60;;
21591;SDS011;10958;50.892;3.992;2023-06-26T03:55:06;11.15;;;3.88;;
21591;SDS011;10958;50.892;3.992;2023-06-26T03:57:31;15.27;;;3.95;;
21591;SDS011;10958;50.892;3.992;2023-06-26T03:59:58;14.32;;;3.58;;
21591;SDS011;10958;50.892;3.992;2023-06-26T04:02:24;13.68;;;4.60;;
21591;SDS011;10958;50.892;3.992;2023-06-26T04:04:49;13.95;;;3.90;;
21591;SDS011;10958;50.892;3.992;2023-06-26T04:07:15;15.77;;;4.03;;
21591;SDS011;10958;50.892;3.992;2023-06-26T04:09:43;11.90;;;4.32;;
21591;SDS011;10958;50.892;3.992;2023-06-26T04:12:09;14.30;;;3.80;;
21591;SDS011;10958;50.892;3.992;2023-06-26T04:14:35;17.58;;;4.20;;
21591;SDS011;10958;50.892;3.992;2023-06-26T04:17:01;10.23;;;3.55;;
21591;SDS011;10958;50.892;3.992;2023-06-26T04:19:28;13.18;;;3.90;;
21591;SDS011;10958;50.892;3.992;2023-06-26T04:21:57;16.50;;;3.97;;
21591;SDS011;10958;50.892;3.992;2023-06-26T04:24:23;11.52;;;4.28;;
21591;SDS011;10958;50.892;3.992;2023-06-26T04:26:51;14.90;;;4.00;;
21591;SDS011;10958;50.892;3.992;2023-06-26T04:29:17;15.25;;;3.42;;
21591;SDS011;10958;50.892;3.992;2023-06-26T04:31:42;14.85;;;3.53;;
21591;SDS011;10958;50.892;3.992;2023-06-26T04:34:13;12.50;;;3.15;;
21591;SDS011;10958;50.892;3.992;2023-06-26T04:36:40;11.50;;;3.53;;
21591;SDS011;10958;50.892;3.992;2023-06-26T04:39:05;12.68;;;3.78;;
21591;SDS011;10958;50.892;3.992;2023-06-26T04:41:31;13.18;;;3.13;;
21591;SDS011;10958;50.892;3.992;2023-06-26T04:43:57;12.73;;;3.80;;
21591;SDS011;10958;50.892;3.992;2023-06-26T04:46:23;12.40;;;3.60;;
21591;SDS011;10958;50.892;3.992;2023-06-26T04:48:51;13.23;;;4.43;;
21591;SDS011;10958;50.892;3.992;2023-06-26T04:51:17;16.13;;;3.63;;
21591;SDS011;10958;50.892;3.992;2023-06-26T04:53:46;13.18;;;3.35;;
21591;SDS011;10958;50.892;3.992;2023-06-26T04:56:14;13.25;;;3.08;;
21591;SDS011;10958;50.892;3.992;2023-06-26T04:58:40;10.65;;;2.78;;
21591;SDS011;10958;50.892;3.992;2023-06-26T05:01:05;8.68;;;2.92;;
21591;SDS011;10958;50.892;3.992;2023-06-26T05:03:32;10.82;;;3.45;;
21591;SDS011;10958;50.892;3.992;2023-06-26T05:05:58;7.60;;;2.67;;
21591;SDS011;10958;50.892;3.992;2023-06-26T05:08:24;13.95;;;2.83;;
21591;SDS011;10958;50.892;3.992;2023-06-26T05:10:53;11.10;;;2.97;;
21591;SDS011;10958;50.892;3.992;2023-06-26T05:13:22;10.40;;;3.15;;
21591;SDS011;10958;50.892;3.992;2023-06-26T05:18:18;20.92;;;4.47;;
21591;SDS011;10958;50.892;3.992;2023-06-26T05:20:44;8.57;;;2.67;;
21591;SDS011;10958;50.892;3.992;2023-06-26T05:23:10;11.80;;;2.90;;
21591;SDS011;10958;50.892;3.992;2023-06-26T05:25:41;14.73;;;2.60;;
21591;SDS011;10958;50.892;3.992;2023-06-26T05:28:07;9.98;;;2.55;;
21591;SDS011;10958;50.892;3.992;2023-06-26T05:30:35;7.23;;;2.40;;
21591;SDS011;10958;50.892;3.992;2023-06-26T05:33:02;8.60;;;2.10;;
21591;SDS011;10958;50.892;3.992;2023-06-26T05:35:29;8.35;;;2.50;;
21591;SDS011;10958;50.892;3.992;2023-06-26T05:37:56;10.90;;;2.08;;
21591;SDS011;10958;50.892;3.992;2023-06-26T05:40:22;8.15;;;1.85;;
21591;SDS011;10958;50.892;3.992;2023-06-26T05:42:48;9.90;;;2.17;;
21591;SDS011;10958;50.892;3.992;2023-06-26T05:45:14;5.82;;;1.90;;
21591;SDS011;10958;50.892;3.992;2023-06-26T05:47:40;9.35;;;1.92;;
21591;SDS011;10958;50.892;3.992;2023-06-26T05:50:07;8.07;;;2.22;;
21591;SDS011;10958;50.892;3.992;2023-06-26T05:52:34;12.85;;;2.42;;
21591;SDS011;10958;50.892;3.992;2023-06-26T05:55:00;7.18;;;1.83;;
21591;SDS011;10958;50.892;3.992;2023-06-26T05:57:27;6.05;;;1.63;;
21591;SDS011;10958;50.892;3.992;2023-06-26T05:59:55;4.15;;;1.73;;
21591;SDS011;10958;50.892;3.992;2023-06-26T06:02:21;13.93;;;2.47;;
21591;SDS011;10958;50.892;3.992;2023-06-26T06:04:50;5.18;;;1.90;;
21591;SDS011;10958;50.892;3.992;2023-06-26T06:07:16;7.90;;;1.65;;
21591;SDS011;10958;50.892;3.992;2023-06-26T06:09:42;7.18;;;1.70;;
21591;SDS011;10958;50.892;3.992;2023-06-26T06:12:08;7.45;;;1.70;;
21591;SDS011;10958;50.892;3.992;2023-06-26T06:14:34;7.00;;;2.20;;
21591;SDS011;10958;50.892;3.992;2023-06-26T06:17:00;8.23;;;1.75;;
21591;SDS011;10958;50.892;3.992;2023-06-26T06:19:27;5.20;;;1.80;;
21591;SDS011;10958;50.892;3.992;2023-06-26T06:21:53;9.00;;;2.20;;
21591;SDS011;10958;50.892;3.992;2023-06-26T06:24:21;6.97;;;1.65;;
21591;SDS011;10958;50.892;3.992;2023-06-26T06:26:47;5.43;;;1.92;;
21591;SDS011;10958;50.892;3.992;2023-06-26T06:29:13;4.40;;;1.48;;
21591;SDS011;10958;50.892;3.992;2023-06-26T06:31:39;3.92;;;1.38;;
21591;SDS011;10958;50.892;3.992;2023-06-26T06:34:07;4.25;;;1.63;;
21591;SDS011;10958;50.892;3.992;2023-06-26T06:36:33;10.18;;;1.70;;
21591;SDS011;10958;50.892;3.992;2023-06-26T06:38:59;8.02;;;1.73;;
21591;SDS011;10958;50.892;3.992;2023-06-26T06:41:25;7.53;;;1.70;;
21591;SDS011;10958;50.892;3.992;2023-06-26T06:43:50;7.78;;;1.50;;
21591;SDS011;10958;50.892;3.992;2023-06-26T06:46:17;7.70;;;2.00;;
21591;SDS011;10958;50.892;3.992;2023-06-26T06:48:43;4.70;;;1.50;;
21591;SDS011;10958;50.892;3.992;2023-06-26T06:51:09;7.13;;;1.30;;
21591;SDS011;10958;50.892;3.992;2023-06-26T06:53:35;4.78;;;1.38;;
21591;SDS011;10958;50.892;3.992;2023-06-26T06:56:00;8.20;;;1.80;;
21591;SDS011;10958;50.892;3.992;2023-06-26T06:58:26;6.07;;;1.48;;
21591;SDS011;10958;50.892;3.992;2023-06-26T07:00:52;6.63;;;1.30;;
21591;SDS011;10958;50.892;3.992;2023-06-26T07:03:18;9.95;;;1.90;;
21591;SDS011;10958;50.892;3.992;2023-06-26T07:05:53;4.95;;;1.33;;
21591;SDS011;10958;50.892;3.992;2023-06-26T07:08:35;5.20;;;1.40;;
21591;SDS011;10958;50.892;3.992;2023-06-26T07:11:01;6.97;;;1.70;;
21591;SDS011;10958;50.892;3.992;2023-06-26T07:13:28;5.20;;;1.58;;
21591;SDS011;10958;50.892;3.992;2023-06-26T07:15:56;7.80;;;1.90;;
21591;SDS011;10958;50.892;3.992;2023-06-26T07:18:22;5.38;;;1.50;;
21591;SDS011;10958;50.892;3.992;2023-06-26T07:20:48;7.75;;;1.70;;
21591;SDS011;10958;50.892;3.992;2023-06-26T07:23:14;6.10;;;1.30;;
21591;SDS011;10958;50.892;3.992;2023-06-26T07:25:42;7.60;;;1.52;;
21591;SDS011;10958;50.892;3.992;2023-06-26T07:28:33;3.42;;;1.60;;
21591;SDS011;10958;50.892;3.992;2023-06-26T07:33:28;7.55;;;1.63;;
21591;SDS011;10958;50.892;3.992;2023-06-26T07:35:57;5.53;;;1.40;;
21591;SDS011;10958;50.892;3.992;2023-06-26T07:38:30;5.20;;;1.63;;
21591;SDS011;10958;50.892;3.992;2023-06-26T07:40:56;9.93;;;1.65;;
21591;SDS011;10958;50.892;3.992;2023-06-26T07:43:22;9.02;;;1.67;;
21591;SDS011;10958;50.892;3.992;2023-06-26T07:46:04;6.45;;;2.30;;
21591;SDS011;10958;50.892;3.992;2023-06-26T07:48:33;4.82;;;1.20;;
21591;SDS011;10958;50.892;3.992;2023-06-26T07:50:59;4.88;;;1.15;;
21591;SDS011;10958;50.892;3.992;2023-06-26T07:56:28;4.57;;;1.33;;
21591;SDS011;10958;50.892;3.992;2023-06-26T07:59:20;4.57;;;1.30;;
21591;SDS011;10958;50.892;3.992;2023-06-26T08:01:47;3.00;;;1.52;;
21591;SDS011;10958;50.892;3.992;2023-06-26T08:04:13;6.20;;;1.42;;
21591;SDS011;10958;50.892;3.992;2023-06-26T08:06:39;5.68;;;1.52;;
21591;SDS011;10958;50.892;3.992;2023-06-26T08:09:11;5.13;;;1.35;;
21591;SDS011;10958;50.892;3.992;2023-06-26T08:11:37;5.22;;;2.20;;
21591;SDS011;10958;50.892;3.992;2023-06-26T08:14:04;5.60;;;1.58;;
21591;SDS011;10958;50.892;3.992;2023-06-26T08:16:35;4.85;;;1.35;;
21591;SDS011;10958;50.892;3.992;2023-06-26T08:19:03;3.10;;;1.42;;
21591;SDS011;10958;50.892;3.992;2023-06-26T08:21:29;4.25;;;1.50;;
21591;SDS011;10958;50.892;3.992;2023-06-26T08:23:56;6.45;;;1.70;;
21591;SDS011;10958;50.892;3.992;2023-06-26T08:26:21;4.97;;;1.55;;
21591;SDS011;10958;50.892;3.992;2023-06-26T08:28:47;4.88;;;1.50;;
21591;SDS011;10958;50.892;3.992;2023-06-26T08:31:15;4.03;;;1.37;;
21591;SDS011;10958;50.892;3.992;2023-06-26T08:33:52;4.07;;;1.52;;
21591;SDS011;10958;50.892;3.992;2023-06-26T08:36:20;6.03;;;2.00;;
21591;SDS011;10958;50.892;3.992;2023-06-26T08:38:46;5.68;;;2.00;;
21591;SDS011;10958;50.892;3.992;2023-06-26T08:41:15;3.60;;;1.40;;
21591;SDS011;10958;50.892;3.992;2023-06-26T08:43:42;5.68;;;1.80;;
21591;SDS011;10958;50.892;3.992;2023-06-26T08:46:08;9.23;;;1.58;;
21591;SDS011;10958;50.892;3.992;2023-06-26T08:48:36;5.18;;;1.35;;
21591;SDS011;10958;50.892;3.992;2023-06-26T08:51:08;4.65;;;1.27;;
21591;SDS011;10958;50.892;3.992;2023-06-26T08:53:42;4.22;;;1.50;;
21591;SDS011;10958;50.892;3.992;2023-06-26T08:56:17;5.78;;;1.70;;
21591;SDS011;10958;50.892;3.992;2023-06-26T08:58:46;5.63;;;1.92;;
21591;SDS011;10958;50.892;3.992;2023-06-26T09:01:14;8.23;;;1.42;;
21591;SDS011;10958;50.892;3.992;2023-06-26T09:03:41;2.50;;;0.93;;
21591;SDS011;10958;50.892;3.992;2023-06-26T09:06:09;5.75;;;1.42;;
21591;SDS011;10958;50.892;3.992;2023-06-26T09:08:35;4.35;;;1.30;;
21591;SDS011;10958;50.892;3.992;2023-06-26T09:11:03;5.75;;;1.20;;
21591;SDS011;10958;50.892;3.992;2023-06-26T09:13:30;4.13;;;1.33;;
21591;SDS011;10958;50.892;3.992;2023-06-26T09:15:56;9.88;;;1.25;;
21591;SDS011;10958;50.892;3.992;2023-06-26T09:18:22;3.53;;;1.15;;
21591;SDS011;10958;50.892;3.992;2023-06-26T09:20:51;3.15;;;1.10;;
21591;SDS011;10958;50.892;3.992;2023-06-26T09:23:16;6.07;;;1.20;;
21591;SDS011;10958;50.892;3.992;2023-06-26T09:25:46;2.70;;;1.20;;
21591;SDS011;10958;50.892;3.992;2023-06-26T09:28:12;4.20;;;1.10;;
21591;SDS011;10958;50.892;3.992;2023-06-26T09:30:38;7.78;;;2.00;;
21591;SDS011;10958;50.892;3.992;2023-06-26T09:33:14;6.20;;;1.33;;
21591;SDS011;10958;50.892;3.992;2023-06-26T09:35:40;5.20;;;1.35;;
21591;SDS011;10958;50.892;3.992;2023-06-26T09:38:07;3.58;;;1.27;;
21591;SDS011;10958;50.892;3.992;2023-06-26T09:40:33;5.30;;;1.60;;
21591;SDS011;10958;50.892;3.992;2023-06-26T09:43:07;7.53;;;1.42;;
21591;SDS011;10958;50.892;3.992;2023-06-26T09:45:39;4.32;;;1.20;;
21591;SDS011;10958;50.892;3.992;2023-06-26T09:48:07;3.88;;;1.42;;
21591;SDS011;10958;50.892;3.992;2023-06-26T09:50:36;2.75;;;1.40;;
21591;SDS011;10958;50.892;3.992;2023-06-26T09:53:12;6.68;;;1.50;;
21591;SDS011;10958;50.892;3.992;2023-06-26T09:55:38;6.30;;;1.88;;
21591;SDS011;10958;50.892;3.992;2023-06-26T09:58:10;6.10;;;1.58;;
21591;SDS011;10958;50.892;3.992;2023-06-26T10:00:42;3.35;;;1.33;;
21591;SDS011;10958;50.892;3.992;2023-06-26T10:03:10;4.03;;;1.70;;
21591;SDS011;10958;50.892;3.992;2023-06-26T10:05:37;6.00;;;1.33;;
21591;SDS011;10958;50.892;3.992;2023-06-26T10:08:04;3.15;;;1.40;;
21591;SDS011;10958;50.892;3.992;2023-06-26T10:10:31;3.28;;;1.50;;
21591;SDS011;10958;50.892;3.992;2023-06-26T10:13:04;5.45;;;1.77;;
21591;SDS011;10958;50.892;3.992;2023-06-26T10:15:36;4.25;;;1.58;;
21591;SDS011;10958;50.892;3.992;2023-06-26T10:18:03;4.40;;;1.50;;
21591;SDS011;10958;50.892;3.992;2023-06-26T10:20:30;7.00;;;2.00;;
21591;SDS011;10958;50.892;3.992;2023-06-26T10:22:56;3.97;;;1.77;;
21591;SDS011;10958;50.892;3.992;2023-06-26T10:25:25;8.50;;;1.50;;
21591;SDS011;10958;50.892;3.992;2023-06-26T10:27:56;3.88;;;1.98;;
21591;SDS011;10958;50.892;3.992;2023-06-26T10:30:27;4.20;;;1.80;;
21591;SDS011;10958;50.892;3.992;2023-06-26T10:32:57;3.45;;;1.60;;
21591;SDS011;10958;50.892;3.992;2023-06-26T10:35:24;4.70;;;1.67;;
21591;SDS011;10958;50.892;3.992;2023-06-26T10:37:51;2.03;;;1.40;;
21591;SDS011;10958;50.892;3.992;2023-06-26T10:40:26;5.28;;;1.48;;
21591;SDS011;10958;50.892;3.992;2023-06-26T10:45:37;9.23;;;1.77;;
21591;SDS011;10958;50.892;3.992;2023-06-26T10:48:08;4.43;;;1.67;;
21591;SDS011;10958;50.892;3.992;2023-06-26T10:50:34;5.40;;;1.50;;
21591;SDS011;10958;50.892;3.992;2023-06-26T10:53:10;6.45;;;1.70;;
21591;SDS011;10958;50.892;3.992;2023-06-26T10:55:37;4.85;;;1.67;;
21591;SDS011;10958;50.892;3.992;2023-06-26T10:58:26;6.72;;;1.65;;
21591;SDS011;10958;50.892;3.992;2023-06-26T11:00:52;6.18;;;1.70;;
21591;SDS011;10958;50.892;3.992;2023-06-26T11:03:39;5.07;;;1.90;;
21591;SDS011;10958;50.892;3.992;2023-06-26T11:06:16;5.35;;;1.63;;
21591;SDS011;10958;50.892;3.992;2023-06-26T11:08:49;6.82;;;1.70;;
21591;SDS011;10958;50.892;3.992;2023-06-26T11:11:21;7.13;;;1.30;;
21591;SDS011;10958;50.892;3.992;2023-06-26T11:13:47;6.63;;;1.45;;
21591;SDS011;10958;50.892;3.992;2023-06-26T11:16:16;3.55;;;1.23;;
21591;SDS011;10958;50.892;3.992;2023-06-26T11:18:42;4.95;;;1.50;;
21591;SDS011;10958;50.892;3.992;2023-06-26T11:21:08;3.95;;;1.30;;
21591;SDS011;10958;50.892;3.992;2023-06-26T11:23:40;3.45;;;1.48;;
21591;SDS011;10958;50.892;3.992;2023-06-26T11:26:15;6.63;;;1.40;;
21591;SDS011;10958;50.892;3.992;2023-06-26T11:28:51;6.60;;;1.50;;
21591;SDS011;10958;50.892;3.992;2023-06-26T11:31:29;4.25;;;1.33;;
21591;SDS011;10958;50.892;3.992;2023-06-26T11:33:56;6.25;;;1.40;;
21591;SDS011;10958;50.892;3.992;2023-06-26T11:36:23;2.78;;;1.17;;
21591;SDS011;10958;50.892;3.992;2023-06-26T11:39:10;2.90;;;1.30;;
21591;SDS011;10958;50.892;3.992;2023-06-26T11:41:37;6.57;;;1.42;;
21591;SDS011;10958;50.892;3.992;2023-06-26T11:44:05;3.95;;;1.13;;
21591;SDS011;10958;50.892;3.992;2023-06-26T11:46:37;5.55;;;1.50;;
21591;SDS011;10958;50.892;3.992;2023-06-26T11:49:03;3.53;;;1.30;;
21591;SDS011;10958;50.892;3.992;2023-06-26T11:51:33;5.03;;;1.38;;
21591;SDS011;10958;50.892;3.992;2023-06-26T11:54:01;3.63;;;1.10;;
21591;SDS011;10958;50.892;3.992;2023-06-26T11:56:30;3.80;;;1.20;;
21591;SDS011;10958;50.892;3.992;2023-06-26T12:04:01;3.28;;;1.20;;
21591;SDS011;10958;50.892;3.992;2023-06-26T12:06:29;4.45;;;1.17;;
21591;SDS011;10958;50.892;3.992;2023-06-26T12:08:56;4.47;;;1.30;;
21591;SDS011;10958;50.892;3.992;2023-06-26T12:11:26;3.23;;;1.10;;
21591;SDS011;10958;50.892;3.992;2023-06-26T12:13:53;6.18;;;1.30;;
21591;SDS011;10958;50.892;3.992;2023-06-26T12:16:19;2.60;;;1.00;;
21591;SDS011;10958;50.892;3.992;2023-06-26T12:18:46;3.50;;;1.10;;
21591;SDS011;10958;50.892;3.992;2023-06-26T12:21:28;5.47;;;1.20;;
21591;SDS011;10958;50.892;3.992;2023-06-26T12:24:03;4.45;;;1.38;;
21591;SDS011;10958;50.892;3.992;2023-06-26T12:26:30;5.25;;;1.42;;
21591;SDS011;10958;50.892;3.992;2023-06-26T12:29:05;5.10;;;1.50;;
21591;SDS011;10958;50.892;3.992;2023-06-26T12:31:32;4.97;;;1.13;;
21591;SDS011;10958;50.892;3.992;2023-06-26T12:33:58;4.20;;;1.20;;
21591;SDS011;10958;50.892;3.992;2023-06-26T12:36:27;4.90;;;1.50;;
21591;SDS011;10958;50.892;3.992;2023-06-26T12:38:55;8.48;;;1.30;;
21591;SDS011;10958;50.892;3.992;2023-06-26T12:41:23;3.60;;;1.20;;
21591;SDS011;10958;50.892;3.992;2023-06-26T12:43:55;4.93;;;1.40;;
21591;SDS011;10958;50.892;3.992;2023-06-26T12:46:32;7.18;;;1.50;;
21591;SDS011;10958;50.892;3.992;2023-06-26T12:49:02;5.55;;;1.20;;
21591;SDS011;10958;50.892;3.992;2023-06-26T12:51:28;10.75;;;1.45;;
21591;SDS011;10958;50.892;3.992;2023-06-26T12:53:54;4.85;;;1.40;;
21591;SDS011;10958;50.892;3.992;2023-06-26T12:56:20;3.55;;;1.23;;
21591;SDS011;10958;50.892;3.992;2023-06-26T12:58:48;2.75;;;1.15;;
21591;SDS011;10958;50.892;3.992;2023-06-26T13:01:14;5.40;;;1.08;;
21591;SDS011;10958;50.892;3.992;2023-06-26T13:03:40;4.60;;;1.25;;
21591;SDS011;10958;50.892;3.992;2023-06-26T13:06:06;2.90;;;0.95;;
21591;SDS011;10958;50.892;3.992;2023-06-26T13:08:35;3.33;;;0.98;;
21591;SDS011;10958;50.892;3.992;2023-06-26T13:11:02;7.75;;;1.42;;
21591;SDS011;10958;50.892;3.992;2023-06-26T13:14:59;4.78;;;1.27;;
21591;SDS011;10958;50.892;3.992;2023-06-26T13:17:25;6.05;;;1.50;;
21591;SDS011;10958;50.892;3.992;2023-06-26T13:19:56;5.07;;;1.60;;
21591;SDS011;10958;50.892;3.992;2023-06-26T13:22:25;2.47;;;1.02;;
21591;SDS011;10958;50.892;3.992;2023-06-26T13:24:53;3.03;;;1.40;;
21591;SDS011;10958;50.892;3.992;2023-06-26T13:27:19;3.80;;;1.55;;
21591;SDS011;10958;50.892;3.992;2023-06-26T13:29:45;6.93;;;1.42;;
21591;SDS011;10958;50.892;3.992;2023-06-26T13:32:11;4.20;;;1.13;;
21591;SDS011;10958;50.892;3.992;2023-06-26T13:34:37;7.15;;;1.30;;
21591;SDS011;10958;50.892;3.992;2023-06-26T13:37:05;3.83;;;1.35;;
21591;SDS011;10958;50.892;3.992;2023-06-26T13:39:31;3.30;;;1.15;;
21591;SDS011;10958;50.892;3.992;2023-06-26T13:41:57;3.85;;;1.48;;
21591;SDS011;10958;50.892;3.992;2023-06-26T13:44:23;3.13;;;1.45;;
21591;SDS011;10958;50.892;3.992;2023-06-26T13:46:48;4.05;;;1.55;;
21591;SDS011;10958;50.892;3.992;2023-06-26T13:49:14;5.57;;;1.48;;
21591;SDS011;10958;50.892;3.992;2023-06-26T13:51:43;3.88;;;1.40;;
21591;SDS011;10958;50.892;3.992;2023-06-26T13:54:12;6.07;;;1.17;;
21591;SDS011;10958;50.892;3.992;2023-06-26T13:56:39;2.10;;;1.00;;
21591;SDS011;10958;50.892;3.992;2023-06-26T13:59:08;5.00;;;1.10;;
21591;SDS011;10958;50.892;3.992;2023-06-26T14:01:33;2.42;;;1.05;;
21591;SDS011;10958;50.892;3.992;2023-06-26T14:04:02;1.65;;;1.30;;
21591;SDS011;10958;50.892;3.992;2023-06-26T14:06:28;2.88;;;1.45;;
21591;SDS011;10958;50.892;3.992;2023-06-26T14:08:55;4.68;;;1.10;;
21591;SDS011;10958;50.892;3.992;2023-06-26T14:11:21;3.88;;;1.65;;
21591;SDS011;10958;50.892;3.992;2023-06-26T14:13:50;4.85;;;1.63;;
21591;SDS011;10958;50.892;3.992;2023-06-26T14:16:18;5.95;;;1.63;;
21591;SDS011;10958;50.892;3.992;2023-06-26T14:18:49;3.67;;;1.20;;
21591;SDS011;10958;50.892;3.992;2023-06-26T14:21:17;4.18;;;1.50;;
21591;SDS011;10958;50.892;3.992;2023-06-26T14:23:44;3.33;;;1.40;;
21591;SDS011;10958;50.892;3.992;2023-06-26T14:26:13;2.88;;;1.33;;
21591;SDS011;10958;50.892;3.992;2023-06-26T14:28:43;9.10;;;1.73;;
21591;SDS011;10958;50.892;3.992;2023-06-26T14:33:36;3.50;;;1.00;;
21591;SDS011;10958;50.892;3.992;2023-06-26T14:36:04;6.32;;;1.40;;
21591;SDS011;10958;50.892;3.992;2023-06-26T14:38:30;5.28;;;1.40;;
21591;SDS011;10958;50.892;3.992;2023-06-26T14:40:58;5.88;;;1.50;;
21591;SDS011;10958;50.892;3.992;2023-06-26T14:43:24;4.87;;;1.60;;
21591;SDS011;10958;50.892;3.992;2023-06-26T14:45:50;6.25;;;1.45;;
21591;SDS011;10958;50.892;3.992;2023-06-26T14:48:15;3.15;;;1.25;;
21591;SDS011;10958;50.892;3.992;2023-06-26T14:50:45;4.65;;;1.45;;
21591;SDS011;10958;50.892;3.992;2023-06-26T14:53:10;2.58;;;1.45;;
21591;SDS011;10958;50.892;3.992;2023-06-26T14:55:36;3.88;;;1.40;;
21591;SDS011;10958;50.892;3.992;2023-06-26T14:58:02;5.63;;;1.20;;
21591;SDS011;10958;50.892;3.992;2023-06-26T15:00:29;3.60;;;1.23;;
21591;SDS011;10958;50.892;3.992;2023-06-26T15:02:54;4.28;;;1.35;;
21591;SDS011;10958;50.892;3.992;2023-06-26T15:07:51;4.00;;;1.60;;
21591;SDS011;10958;50.892;3.992;2023-06-26T15:10:21;4.03;;;1.30;;
21591;SDS011;10958;50.892;3.992;2023-06-26T15:12:51;2.83;;;1.35;;
21591;SDS011;10958;50.892;3.992;2023-06-26T15:15:21;3.67;;;1.20;;
21591;SDS011;10958;50.892;3.992;2023-06-26T15:17:47;4.95;;;1.20;;
21591;SDS011;10958;50.892;3.992;2023-06-26T15:20:13;1.52;;;0.80;;
21591;SDS011;10958;50.892;3.992;2023-06-26T15:22:42;2.33;;;1.00;;
21591;SDS011;10958;50.892;3.992;2023-06-26T15:25:08;5.15;;;0.88;;
21591;SDS011;10958;50.892;3.992;2023-06-26T15:27:34;3.58;;;0.90;;
21591;SDS011;10958;50.892;3.992;2023-06-26T15:30:05;3.45;;;1.25;;
21591;SDS011;10958;50.892;3.992;2023-06-26T15:32:32;5.68;;;1.35;;